Vreite — PC7692 — position and weather

sailwx.info

Track history (hours):
 
Tides and Currents Weather Stations Pressure Air Temp Water Temp Dewpoint Dewpoint Depression Visibility Wind Speed Wind Dir Waves Ship Positions

Vreite

Last reported at 2017-Oct-19 11:55 UTC. Time now 2017-Nov-19 21:56 UTC.
Position N 52°39' E 006°06'.
Warning: this ship's position is 31 days out of date.

Length 13 m.

Type: Pleasure craft. MMSI: 244100689.

Date/timePositionNaut miles runAvg speedWind from/ knotsBaromVisibWave heightAir tempDewpointWater temp
2017-Oct-19 11:55N 52°39' E 006°06'1 2.4
2017-Oct-19 11:30N 52°39' E 006°05'1 2.6
2017-Oct-19 11:00N 52°38' E 006°03'2 4.2
2017-Oct-19 10:29N 52°39' E 005°60'3 5.7
2017-Oct-19 10:00N 52°38' E 005°56'3 5.0
2017-Oct-19 09:30N 52°37' E 005°52'2 4.4
2017-Oct-19 09:00N 52°37' E 005°48'2 3.3
2017-Oct-19 08:30N 52°36' E 005°45'1 2.3
2017-Oct-19 07:59N 52°35' E 005°45'0 0.0
2017-Oct-18 15:10N 52°35' E 005°45'0 1.9
2017-Oct-18 15:00N 52°35' E 005°45'2 2.5
2017-Oct-18 14:00N 52°36' E 005°41'1 2.6
2017-Oct-18 13:29N 52°36' E 005°39'2 3.8
2017-Oct-18 13:00N 52°36' E 005°36'3 5.1
2017-Oct-18 12:30N 52°36' E 005°32'1 2.5
2017-Oct-18 12:00N 52°36' E 005°30'3 5.5
2017-Oct-18 11:31N 52°34' E 005°28'2 4.2
2017-Oct-18 10:56N 52°32' E 005°26'2 3.8
2017-Oct-18 10:31N 52°31' E 005°24'2 4.9
2017-Oct-18 10:00N 52°30' E 005°20'2 3.3
2017-Oct-18 09:30N 52°30' E 005°17'2 4.6
2017-Oct-18 09:00N 52°28' E 005°16'2 4.9
2017-Oct-18 08:31N 52°26' E 005°14'1 1.7
2017-Oct-18 07:55N 52°25' E 005°13'0 0.0
2017-Oct-17 15:25N 52°25' E 005°13'0 0.2
2017-Oct-17 15:00N 52°25' E 005°13'1 2.3
2017-Oct-17 14:30N 52°25' E 005°11'2 4.2
2017-Oct-17 14:00N 52°24' E 005°08'2 4.4
2017-Oct-17 13:30N 52°23' E 005°05'2 4.1
2017-Oct-17 13:00N 52°22' E 005°02'2 3.7
2017-Oct-17 12:30N 52°22' E 004°59'1 1.6
2017-Oct-17 12:00N 52°23' E 004°58'0 0.2
2017-Oct-17 11:29N 52°23' E 004°58'1 1.3
2017-Oct-17 11:00N 52°23' E 004°57'2 4.4
2017-Oct-17 10:30N 52°24' E 004°53'2 4.2
2017-Oct-17 10:00N 52°25' E 004°51'2 4.0
2017-Oct-17 09:30N 52°25' E 004°47'2 3.9
2017-Oct-17 09:00N 52°26' E 004°44'2 3.5
2017-Oct-17 08:29N 52°25' E 004°42'0 0.7
2017-Oct-17 07:59N 52°25' E 004°41'0 0.4
2017-Oct-17 07:30N 52°25' E 004°41'1 1.5
2017-Oct-17 07:00N 52°24' E 004°40'0 0.0
2017-Oct-16 17:00N 52°24' E 004°40'1 1.7
2017-Oct-16 16:30N 52°24' E 004°39'1 0.2
2017-Oct-16 11:23N 52°23' E 004°38'1 2.0
2017-Oct-16 11:00N 52°22' E 004°38'2 3.4
2017-Oct-16 10:28N 52°20' E 004°38'1 2.7
2017-Oct-16 09:59N 52°19' E 004°37'1 3.0
2017-Oct-16 09:30N 52°18' E 004°36'1 2.8
2017-Oct-16 09:00N 52°17' E 004°35'2 3.3
2017-Oct-16 08:30N 52°15' E 004°34'2 0.1
2017-Oct-15 17:51N 52°14' E 004°33'0 0.6
2017-Oct-15 17:30N 52°13' E 004°33'3 4.9
2017-Oct-15 16:59N 52°13' E 004°37'2 4.3
2017-Oct-15 16:30N 52°14' E 004°40'3 5.3
2017-Oct-15 16:00N 52°16' E 004°43'2 5.0
2017-Oct-15 15:30N 52°17' E 004°47'2 3.0
2017-Oct-15 14:59N 52°18' E 004°48'3 3.1
2017-Oct-15 13:58N 52°16' E 004°44'0 0.0
2017-Oct-15 11:39N 52°16' E 004°45'0 0.3
2017-Oct-15 11:29N 52°16' E 004°44'1 2.3
2017-Oct-15 11:00N 52°15' E 004°43'1 2.9
2017-Oct-15 10:30N 52°14' E 004°41'1 2.6
2017-Oct-15 10:01N 52°14' E 004°40'1 1.9
2017-Oct-15 09:31N 52°13' E 004°39'4 0.2
2017-Oct-14 15:01N 52°09' E 004°39'0 0.0
2017-Oct-14 14:58N 52°09' E 004°39'1 2.6
2017-Oct-14 14:30N 52°08' E 004°40'1 2.8
2017-Oct-14 14:00N 52°07' E 004°40'1 2.6
2017-Oct-14 13:30N 52°06' E 004°40'2 5.0
2017-Oct-14 13:00N 52°03' E 004°40'2 4.4
2017-Oct-14 12:29N 52°01' E 004°41'0 0.1
2017-Oct-14 12:00N 52°01' E 004°41'0 0.0
2017-Oct-13 16:25N 52°01' E 004°41'1 1.4
2017-Oct-13 15:58N 52°00' E 004°42'1 2.1
2017-Oct-13 15:30N 51°59' E 004°41'2 3.3
2017-Oct-13 15:00N 51°58' E 004°39'1 2.7
2017-Oct-13 14:30N 51°57' E 004°38'1 2.8
2017-Oct-13 14:00N 51°56' E 004°37'1 2.5
2017-Oct-13 13:30N 51°55' E 004°35'1 2.5
2017-Oct-13 13:00N 51°54' E 004°34'4 7.0
2017-Oct-13 12:30N 51°52' E 004°39'1 1.8
2017-Oct-13 11:59N 51°51' E 004°39'2 3.9
2017-Oct-13 11:30N 51°49' E 004°40'1 1.3
2017-Oct-13 11:00N 51°49' E 004°40'0 0.2
2017-Oct-13 10:25N 51°49' E 004°40'0 0.0
2017-Oct-13 08:02N 51°49' E 004°40'0 0.0
2017-Oct-13 07:56N 51°49' E 004°40'  
2017-Oct-09 12:02N 51°49' E 004°40'0 0.1
2017-Oct-09 11:59N 51°49' E 004°40'  
Track history (hours):
 
Tides and Currents Weather Stations Pressure Air Temp Water Temp Dewpoint Dewpoint Depression Visibility Wind Speed Wind Dir Waves Ship Positions

Vreite

Last reported at 2017-Oct-19 11:55 UTC. Time now 2017-Nov-19 21:56 UTC.
Position N 52°39' E 006°06'.
Warning: this ship's position is 31 days out of date.

Length 13 m.

Type: Pleasure craft. MMSI: 244100689.

Date/timePositionNaut miles runAvg speedWind from/ knotsBaromVisibWave heightAir tempDewpointWater temp
2017-Oct-19 11:55N 52°39' E 006°06'1 2.4
2017-Oct-19 11:30N 52°39' E 006°05'1 2.6
2017-Oct-19 11:00N 52°38' E 006°03'2 4.2
2017-Oct-19 10:29N 52°39' E 005°60'3 5.7
2017-Oct-19 10:00N 52°38' E 005°56'3 5.0
2017-Oct-19 09:30N 52°37' E 005°52'2 4.4
2017-Oct-19 09:00N 52°37' E 005°48'2 3.3
2017-Oct-19 08:30N 52°36' E 005°45'1 2.3
2017-Oct-19 07:59N 52°35' E 005°45'0 0.0
2017-Oct-18 15:10N 52°35' E 005°45'0 1.9
2017-Oct-18 15:00N 52°35' E 005°45'2 2.5
2017-Oct-18 14:00N 52°36' E 005°41'1 2.6
2017-Oct-18 13:29N 52°36' E 005°39'2 3.8
2017-Oct-18 13:00N 52°36' E 005°36'3 5.1
2017-Oct-18 12:30N 52°36' E 005°32'1 2.5
2017-Oct-18 12:00N 52°36' E 005°30'3 5.5
2017-Oct-18 11:31N 52°34' E 005°28'2 4.2
2017-Oct-18 10:56N 52°32' E 005°26'2 3.8
2017-Oct-18 10:31N 52°31' E 005°24'2 4.9
2017-Oct-18 10:00N 52°30' E 005°20'2 3.3
2017-Oct-18 09:30N 52°30' E 005°17'2 4.6
2017-Oct-18 09:00N 52°28' E 005°16'2 4.9
2017-Oct-18 08:31N 52°26' E 005°14'1 1.7
2017-Oct-18 07:55N 52°25' E 005°13'0 0.0
2017-Oct-17 15:25N 52°25' E 005°13'0 0.2
2017-Oct-17 15:00N 52°25' E 005°13'1 2.3
2017-Oct-17 14:30N 52°25' E 005°11'2 4.2
2017-Oct-17 14:00N 52°24' E 005°08'2 4.4
2017-Oct-17 13:30N 52°23' E 005°05'2 4.1
2017-Oct-17 13:00N 52°22' E 005°02'2 3.7
2017-Oct-17 12:30N 52°22' E 004°59'1 1.6
2017-Oct-17 12:00N 52°23' E 004°58'0 0.2
2017-Oct-17 11:29N 52°23' E 004°58'1 1.3
2017-Oct-17 11:00N 52°23' E 004°57'2 4.4
2017-Oct-17 10:30N 52°24' E 004°53'2 4.2
2017-Oct-17 10:00N 52°25' E 004°51'2 4.0
2017-Oct-17 09:30N 52°25' E 004°47'2 3.9
2017-Oct-17 09:00N 52°26' E 004°44'2 3.5
2017-Oct-17 08:29N 52°25' E 004°42'0 0.7
2017-Oct-17 07:59N 52°25' E 004°41'0 0.4
2017-Oct-17 07:30N 52°25' E 004°41'1 1.5
2017-Oct-17 07:00N 52°24' E 004°40'0 0.0
2017-Oct-16 17:00N 52°24' E 004°40'1 1.7
2017-Oct-16 16:30N 52°24' E 004°39'1 0.2
2017-Oct-16 11:23N 52°23' E 004°38'1 2.0
2017-Oct-16 11:00N 52°22' E 004°38'2 3.4
2017-Oct-16 10:28N 52°20' E 004°38'1 2.7
2017-Oct-16 09:59N 52°19' E 004°37'1 3.0
2017-Oct-16 09:30N 52°18' E 004°36'1 2.8
2017-Oct-16 09:00N 52°17' E 004°35'2 3.3
2017-Oct-16 08:30N 52°15' E 004°34'2 0.1
2017-Oct-15 17:51N 52°14' E 004°33'0 0.6
2017-Oct-15 17:30N 52°13' E 004°33'3 4.9
2017-Oct-15 16:59N 52°13' E 004°37'2 4.3
2017-Oct-15 16:30N 52°14' E 004°40'3 5.3
2017-Oct-15 16:00N 52°16' E 004°43'2 5.0
2017-Oct-15 15:30N 52°17' E 004°47'2 3.0
2017-Oct-15 14:59N 52°18' E 004°48'3 3.1
2017-Oct-15 13:58N 52°16' E 004°44'0 0.0
2017-Oct-15 11:39N 52°16' E 004°45'0 0.3
2017-Oct-15 11:29N 52°16' E 004°44'1 2.3
2017-Oct-15 11:00N 52°15' E 004°43'1 2.9
2017-Oct-15 10:30N 52°14' E 004°41'1 2.6
2017-Oct-15 10:01N 52°14' E 004°40'1 1.9
2017-Oct-15 09:31N 52°13' E 004°39'4 0.2
2017-Oct-14 15:01N 52°09' E 004°39'0 0.0
2017-Oct-14 14:58N 52°09' E 004°39'1 2.6
2017-Oct-14 14:30N 52°08' E 004°40'1 2.8
2017-Oct-14 14:00N 52°07' E 004°40'1 2.6
2017-Oct-14 13:30N 52°06' E 004°40'2 5.0
2017-Oct-14 13:00N 52°03' E 004°40'2 4.4
2017-Oct-14 12:29N 52°01' E 004°41'0 0.1
2017-Oct-14 12:00N 52°01' E 004°41'0 0.0
2017-Oct-13 16:25N 52°01' E 004°41'1 1.4
2017-Oct-13 15:58N 52°00' E 004°42'1 2.1
2017-Oct-13 15:30N 51°59' E 004°41'2 3.3
2017-Oct-13 15:00N 51°58' E 004°39'1 2.7
2017-Oct-13 14:30N 51°57' E 004°38'1 2.8
2017-Oct-13 14:00N 51°56' E 004°37'1 2.5
2017-Oct-13 13:30N 51°55' E 004°35'1 2.5
2017-Oct-13 13:00N 51°54' E 004°34'4 7.0
2017-Oct-13 12:30N 51°52' E 004°39'1 1.8
2017-Oct-13 11:59N 51°51' E 004°39'2 3.9
2017-Oct-13 11:30N 51°49' E 004°40'1 1.3
2017-Oct-13 11:00N 51°49' E 004°40'0 0.2
2017-Oct-13 10:25N 51°49' E 004°40'0 0.0
2017-Oct-13 08:02N 51°49' E 004°40'0 0.0
2017-Oct-13 07:56N 51°49' E 004°40'  
2017-Oct-09 12:02N 51°49' E 004°40'0 0.1
2017-Oct-09 11:59N 51°49' E 004°40'  

Dump ship's entire track history